sensor_id;sensor_type;location;lat;lon;timestamp;temperature;humidity
75466;HTU21D;64049;46.290;44.240;2023-07-13T00:00:42;16.17;83.09
75466;HTU21D;64049;46.290;44.240;2023-07-13T00:03:08;16.19;83.15
75466;HTU21D;64049;46.290;44.240;2023-07-13T00:05:34;16.22;83.23
75466;HTU21D;64049;46.290;44.240;2023-07-13T00:08:00;16.26;83.28
75466;HTU21D;64049;46.290;44.240;2023-07-13T00:10:26;16.28;83.25
75466;HTU21D;64049;46.290;44.240;2023-07-13T00:12:52;16.30;83.30
75466;HTU21D;64049;46.290;44.240;2023-07-13T00:15:23;16.35;83.24
75466;HTU21D;64049;46.290;44.240;2023-07-13T00:17:53;16.36;83.25
75466;HTU21D;64049;46.290;44.240;2023-07-13T00:20:24;16.36;83.28
75466;HTU21D;64049;46.290;44.240;2023-07-13T00:22:51;16.37;83.30
75466;HTU21D;64049;46.290;44.240;2023-07-13T00:25:22;16.37;83.36
75466;HTU21D;64049;46.290;44.240;2023-07-13T00:27:50;16.35;83.49
75466;HTU21D;64049;46.290;44.240;2023-07-13T00:30:16;16.31;83.71
75466;HTU21D;64049;46.290;44.240;2023-07-13T00:32:42;16.25;83.83
75466;HTU21D;64049;46.290;44.240;2023-07-13T00:35:08;16.22;83.95
75466;HTU21D;64049;46.290;44.240;2023-07-13T00:37:34;16.20;84.02
75466;HTU21D;64049;46.290;44.240;2023-07-13T00:40:06;16.22;84.05
75466;HTU21D;64049;46.290;44.240;2023-07-13T00:42:32;16.24;84.00
75466;HTU21D;64049;46.290;44.240;2023-07-13T00:47:33;16.31;83.96
75466;HTU21D;64049;46.290;44.240;2023-07-13T00:50:00;16.33;83.94
75466;HTU21D;64049;46.290;44.240;2023-07-13T00:52:26;16.32;83.92
75466;HTU21D;64049;46.290;44.240;2023-07-13T00:54:53;16.31;83.90
75466;HTU21D;64049;46.290;44.240;2023-07-13T00:57:20;16.25;83.87
75466;HTU21D;64049;46.290;44.240;2023-07-13T00:59:52;16.19;83.99
75466;HTU21D;64049;46.290;44.240;2023-07-13T01:02:19;16.16;84.09
75466;HTU21D;64049;46.290;44.240;2023-07-13T01:04:47;16.12;84.16
75466;HTU21D;64049;46.290;44.240;2023-07-13T01:07:13;16.11;84.24
75466;HTU21D;64049;46.290;44.240;2023-07-13T01:09:39;16.06;84.27
75466;HTU21D;64049;46.290;44.240;2023-07-13T01:12:05;16.02;84.34
75466;HTU21D;64049;46.290;44.240;2023-07-13T01:14:31;16.01;84.37
75466;HTU21D;64049;46.290;44.240;2023-07-13T01:16:58;16.02;84.40
75466;HTU21D;64049;46.290;44.240;2023-07-13T01:22:06;15.95;84.47
75466;HTU21D;64049;46.290;44.240;2023-07-13T01:24:39;15.92;84.58
75466;HTU21D;64049;46.290;44.240;2023-07-13T01:27:07;15.95;84.72
75466;HTU21D;64049;46.290;44.240;2023-07-13T01:29:35;15.98;84.86
75466;HTU21D;64049;46.290;44.240;2023-07-13T01:32:09;16.00;84.87
75466;HTU21D;64049;46.290;44.240;2023-07-13T01:34:36;16.03;85.00
75466;HTU21D;64049;46.290;44.240;2023-07-13T01:37:04;16.05;85.02
75466;HTU21D;64049;46.290;44.240;2023-07-13T01:39:30;16.07;85.09
75466;HTU21D;64049;46.290;44.240;2023-07-13T01:41:57;16.12;85.16
75466;HTU21D;64049;46.290;44.240;2023-07-13T01:44:23;16.14;85.24
75466;HTU21D;64049;46.290;44.240;2023-07-13T01:46:49;16.19;85.34
75466;HTU21D;64049;46.290;44.240;2023-07-13T01:49:15;16.25;85.44
75466;HTU21D;64049;46.290;44.240;2023-07-13T01:51:40;16.30;85.50
75466;HTU21D;64049;46.290;44.240;2023-07-13T01:54:06;16.30;85.51
75466;HTU21D;64049;46.290;44.240;2023-07-13T01:56:32;16.28;85.54
75466;HTU21D;64049;46.290;44.240;2023-07-13T01:58:58;16.26;85.58
75466;HTU21D;64049;46.290;44.240;2023-07-13T02:01:24;16.26;85.64
75466;HTU21D;64049;46.290;44.240;2023-07-13T02:04:05;16.25;85.66
75466;HTU21D;64049;46.290;44.240;2023-07-13T02:06:33;16.21;85.69
75466;HTU21D;64049;46.290;44.240;2023-07-13T02:08:59;16.19;85.73
75466;HTU21D;64049;46.290;44.240;2023-07-13T02:11:25;16.16;85.72
75466;HTU21D;64049;46.290;44.240;2023-07-13T02:13:59;16.13;85.77
75466;HTU21D;64049;46.290;44.240;2023-07-13T02:16:26;16.14;85.78
75466;HTU21D;64049;46.290;44.240;2023-07-13T02:18:52;16.14;85.78
75466;HTU21D;64049;46.290;44.240;2023-07-13T02:21:18;16.21;85.80
75466;HTU21D;64049;46.290;44.240;2023-07-13T02:23:44;16.34;85.77
75466;HTU21D;64049;46.290;44.240;2023-07-13T02:26:10;16.51;85.61
75466;HTU21D;64049;46.290;44.240;2023-07-13T02:28:35;16.62;85.38
75466;HTU21D;64049;46.290;44.240;2023-07-13T02:31:07;16.65;85.20
75466;HTU21D;64049;46.290;44.240;2023-07-13T02:33:33;16.67;85.18
75466;HTU21D;64049;46.290;44.240;2023-07-13T02:35:58;16.72;85.19
75466;HTU21D;64049;46.290;44.240;2023-07-13T02:38:24;16.76;85.10
75466;HTU21D;64049;46.290;44.240;2023-07-13T02:40:50;16.80;85.06
75466;HTU21D;64049;46.290;44.240;2023-07-13T02:43:19;16.82;85.06
75466;HTU21D;64049;46.290;44.240;2023-07-13T02:45:46;16.87;85.04
75466;HTU21D;64049;46.290;44.240;2023-07-13T02:48:14;16.90;85.03
75466;HTU21D;64049;46.290;44.240;2023-07-13T02:50:40;16.96;84.99
75466;HTU21D;64049;46.290;44.240;2023-07-13T02:53:06;17.01;84.92
75466;HTU21D;64049;46.290;44.240;2023-07-13T02:55:32;17.06;84.87
75466;HTU21D;64049;46.290;44.240;2023-07-13T02:57:58;17.11;84.80
75466;HTU21D;64049;46.290;44.240;2023-07-13T03:00:24;17.17;84.69
75466;HTU21D;64049;46.290;44.240;2023-07-13T03:02:50;17.25;84.57
75466;HTU21D;64049;46.290;44.240;2023-07-13T03:05:16;17.31;84.35
75466;HTU21D;64049;46.290;44.240;2023-07-13T03:07:43;17.30;84.23
75466;HTU21D;64049;46.290;44.240;2023-07-13T03:10:10;17.32;84.18
75466;HTU21D;64049;46.290;44.240;2023-07-13T03:12:42;17.41;84.05
75466;HTU21D;64049;46.290;44.240;2023-07-13T03:15:16;17.51;83.80
75466;HTU21D;64049;46.290;44.240;2023-07-13T03:17:44;17.65;83.51
75466;HTU21D;64049;46.290;44.240;2023-07-13T03:20:11;17.78;83.07
75466;HTU21D;64049;46.290;44.240;2023-07-13T03:22:37;17.85;82.75
75466;HTU21D;64049;46.290;44.240;2023-07-13T03:25:04;17.92;82.42
75466;HTU21D;64049;46.290;44.240;2023-07-13T03:27:30;18.02;82.18
75466;HTU21D;64049;46.290;44.240;2023-07-13T03:29:57;18.19;81.74
75466;HTU21D;64049;46.290;44.240;2023-07-13T03:32:23;18.38;80.94
75466;HTU21D;64049;46.290;44.240;2023-07-13T03:34:49;18.50;80.18
75466;HTU21D;64049;46.290;44.240;2023-07-13T03:37:15;18.51;79.66
75466;HTU21D;64049;46.290;44.240;2023-07-13T03:39:41;18.47;79.40
75466;HTU21D;64049;46.290;44.240;2023-07-13T03:42:08;18.44;79.29
75466;HTU21D;64049;46.290;44.240;2023-07-13T03:44:35;18.38;79.04
75466;HTU21D;64049;46.290;44.240;2023-07-13T03:47:03;18.33;78.86
75466;HTU21D;64049;46.290;44.240;2023-07-13T03:49:31;18.33;78.91
75466;HTU21D;64049;46.290;44.240;2023-07-13T03:52:00;18.35;78.92
75466;HTU21D;64049;46.290;44.240;2023-07-13T03:54:26;18.51;78.92
75466;HTU21D;64049;46.290;44.240;2023-07-13T03:56:52;18.63;78.80
75466;HTU21D;64049;46.290;44.240;2023-07-13T03:59:20;18.78;78.50
75466;HTU21D;64049;46.290;44.240;2023-07-13T04:01:46;18.77;78.16
75466;HTU21D;64049;46.290;44.240;2023-07-13T04:04:12;18.77;78.14
75466;HTU21D;64049;46.290;44.240;2023-07-13T04:06:38;18.91;78.05
75466;HTU21D;64049;46.290;44.240;2023-07-13T04:09:04;19.07;77.89
75466;HTU21D;64049;46.290;44.240;2023-07-13T04:11:34;19.09;77.69
75466;HTU21D;64049;46.290;44.240;2023-07-13T04:14:01;19.03;77.69
75466;HTU21D;64049;46.290;44.240;2023-07-13T04:16:28;18.96;77.72
75466;HTU21D;64049;46.290;44.240;2023-07-13T04:18:55;18.95;77.79
75466;HTU21D;64049;46.290;44.240;2023-07-13T04:21:26;19.05;77.76
75466;HTU21D;64049;46.290;44.240;2023-07-13T04:23:52;19.16;77.46
75466;HTU21D;64049;46.290;44.240;2023-07-13T04:26:18;19.25;77.27
75466;HTU21D;64049;46.290;44.240;2023-07-13T04:28:47;19.26;77.08
75466;HTU21D;64049;46.290;44.240;2023-07-13T04:31:14;19.35;76.95
75466;HTU21D;64049;46.290;44.240;2023-07-13T04:33:40;19.47;76.57
75466;HTU21D;64049;46.290;44.240;2023-07-13T04:36:06;19.53;76.11
75466;HTU21D;64049;46.290;44.240;2023-07-13T04:38:35;19.54;75.79
75466;HTU21D;64049;46.290;44.240;2023-07-13T04:41:04;19.59;75.40
75466;HTU21D;64049;46.290;44.240;2023-07-13T04:43:32;19.67;75.31
75466;HTU21D;64049;46.290;44.240;2023-07-13T04:46:03;19.69;75.14
75466;HTU21D;64049;46.290;44.240;2023-07-13T04:48:29;19.72;74.68
75466;HTU21D;64049;46.290;44.240;2023-07-13T04:50:57;19.87;74.41
75466;HTU21D;64049;46.290;44.240;2023-07-13T04:53:23;20.05;73.86
75466;HTU21D;64049;46.290;44.240;2023-07-13T04:55:49;20.10;73.72
75466;HTU21D;64049;46.290;44.240;2023-07-13T04:58:15;20.14;73.44
75466;HTU21D;64049;46.290;44.240;2023-07-13T05:00:41;20.06;73.28
75466;HTU21D;64049;46.290;44.240;2023-07-13T05:03:07;19.98;73.50
75466;HTU21D;64049;46.290;44.240;2023-07-13T05:05:33;20.06;73.35
75466;HTU21D;64049;46.290;44.240;2023-07-13T05:07:59;20.29;72.85
75466;HTU21D;64049;46.290;44.240;2023-07-13T05:10:25;20.53;71.95
75466;HTU21D;64049;46.290;44.240;2023-07-13T05:12:51;20.77;71.38
75466;HTU21D;64049;46.290;44.240;2023-07-13T05:15:18;21.05;70.59
75466;HTU21D;64049;46.290;44.240;2023-07-13T05:17:47;21.25;69.11
75466;HTU21D;64049;46.290;44.240;2023-07-13T05:20:14;21.19;69.04
75466;HTU21D;64049;46.290;44.240;2023-07-13T05:22:40;21.00;69.01
75466;HTU21D;64049;46.290;44.240;2023-07-13T05:25:07;20.85;69.39
75466;HTU21D;64049;46.290;44.240;2023-07-13T05:27:34;20.95;69.36
75466;HTU21D;64049;46.290;44.240;2023-07-13T05:30:01;21.14;69.05
75466;HTU21D;64049;46.290;44.240;2023-07-13T05:32:27;21.38;68.30
75466;HTU21D;64049;46.290;44.240;2023-07-13T05:34:53;21.53;67.72
75466;HTU21D;64049;46.290;44.240;2023-07-13T05:37:19;21.63;66.91
75466;HTU21D;64049;46.290;44.240;2023-07-13T05:39:46;21.81;66.46
75466;HTU21D;64049;46.290;44.240;2023-07-13T05:42:12;21.69;66.12
75466;HTU21D;64049;46.290;44.240;2023-07-13T05:44:38;21.61;66.40
75466;HTU21D;64049;46.290;44.240;2023-07-13T05:47:04;21.55;65.99
75466;HTU21D;64049;46.290;44.240;2023-07-13T05:49:30;21.50;66.55
75466;HTU21D;64049;46.290;44.240;2023-07-13T05:51:56;21.40;66.37
75466;HTU21D;64049;46.290;44.240;2023-07-13T05:54:22;21.38;66.82
75466;HTU21D;64049;46.290;44.240;2023-07-13T05:56:48;21.44;66.76
75466;HTU21D;64049;46.290;44.240;2023-07-13T05:59:14;21.31;67.15
75466;HTU21D;64049;46.290;44.240;2023-07-13T06:01:41;21.43;66.96
75466;HTU21D;64049;46.290;44.240;2023-07-13T06:04:07;21.51;66.70
75466;HTU21D;64049;46.290;44.240;2023-07-13T06:06:33;21.63;66.48
75466;HTU21D;64049;46.290;44.240;2023-07-13T06:08:59;21.62;66.30
75466;HTU21D;64049;46.290;44.240;2023-07-13T06:11:26;21.75;66.34
75466;HTU21D;64049;46.290;44.240;2023-07-13T06:13:53;21.83;65.91
75466;HTU21D;64049;46.290;44.240;2023-07-13T06:16:19;21.85;66.06
75466;HTU21D;64049;46.290;44.240;2023-07-13T06:18:45;21.82;65.90
75466;HTU21D;64049;46.290;44.240;2023-07-13T06:21:18;22.02;65.84
75466;HTU21D;64049;46.290;44.240;2023-07-13T06:23:45;22.29;64.94
75466;HTU21D;64049;46.290;44.240;2023-07-13T06:26:13;22.49;63.94
75466;HTU21D;64049;46.290;44.240;2023-07-13T06:28:45;22.55;63.27
75466;HTU21D;64049;46.290;44.240;2023-07-13T06:31:13;22.57;62.98
75466;HTU21D;64049;46.290;44.240;2023-07-13T06:33:40;22.61;62.94
75466;HTU21D;64049;46.290;44.240;2023-07-13T06:36:07;22.53;62.57
75466;HTU21D;64049;46.290;44.240;2023-07-13T06:38:35;22.37;62.75
75466;HTU21D;64049;46.290;44.240;2023-07-13T06:41:01;22.35;62.94
75466;HTU21D;64049;46.290;44.240;2023-07-13T06:43:27;22.35;62.94
75466;HTU21D;64049;46.290;44.240;2023-07-13T06:45:55;22.31;62.51
75466;HTU21D;64049;46.290;44.240;2023-07-13T06:48:21;22.38;62.86
75466;HTU21D;64049;46.290;44.240;2023-07-13T06:50:50;22.68;62.13
75466;HTU21D;64049;46.290;44.240;2023-07-13T06:53:20;22.87;61.41
75466;HTU21D;64049;46.290;44.240;2023-07-13T06:55:46;22.90;60.59
75466;HTU21D;64049;46.290;44.240;2023-07-13T06:58:12;22.79;61.35
75466;HTU21D;64049;46.290;44.240;2023-07-13T07:00:39;22.99;60.55
75466;HTU21D;64049;46.290;44.240;2023-07-13T07:03:05;23.01;59.87
75466;HTU21D;64049;46.290;44.240;2023-07-13T07:05:31;23.18;59.86
75466;HTU21D;64049;46.290;44.240;2023-07-13T07:07:58;23.53;59.19
75466;HTU21D;64049;46.290;44.240;2023-07-13T07:10:25;23.38;57.87
75466;HTU21D;64049;46.290;44.240;2023-07-13T07:12:51;23.13;58.58
75466;HTU21D;64049;46.290;44.240;2023-07-13T07:15:18;23.00;58.95
75466;HTU21D;64049;46.290;44.240;2023-07-13T07:17:44;23.06;59.58
75466;HTU21D;64049;46.290;44.240;2023-07-13T07:20:11;23.08;59.46
75466;HTU21D;64049;46.290;44.240;2023-07-13T07:22:37;23.05;59.24
75466;HTU21D;64049;46.290;44.240;2023-07-13T07:25:04;23.29;57.80
75466;HTU21D;64049;46.290;44.240;2023-07-13T07:27:30;23.69;57.74
75466;HTU21D;64049;46.290;44.240;2023-07-13T07:29:56;23.88;56.81
75466;HTU21D;64049;46.290;44.240;2023-07-13T07:32:23;23.91;56.55
75466;HTU21D;64049;46.290;44.240;2023-07-13T07:34:49;23.99;56.17
75466;HTU21D;64049;46.290;44.240;2023-07-13T07:37:16;23.99;54.51
75466;HTU21D;64049;46.290;44.240;2023-07-13T07:39:50;24.23;53.04
75466;HTU21D;64049;46.290;44.240;2023-07-13T07:42:20;24.58;53.33
75466;HTU21D;64049;46.290;44.240;2023-07-13T07:44:47;24.69;53.54
75466;HTU21D;64049;46.290;44.240;2023-07-13T07:47:14;24.40;53.45
75466;HTU21D;64049;46.290;44.240;2023-07-13T07:49:42;24.34;52.59
75466;HTU21D;64049;46.290;44.240;2023-07-13T07:52:11;24.58;51.28
75466;HTU21D;64049;46.290;44.240;2023-07-13T07:54:37;24.76;50.30
75466;HTU21D;64049;46.290;44.240;2023-07-13T07:57:07;24.90;50.37
75466;HTU21D;64049;46.290;44.240;2023-07-13T07:59:34;24.94;49.57
75466;HTU21D;64049;46.290;44.240;2023-07-13T08:02:00;24.98;48.82
75466;HTU21D;64049;46.290;44.240;2023-07-13T08:04:28;25.13;48.76
75466;HTU21D;64049;46.290;44.240;2023-07-13T08:06:57;25.31;48.34
75466;HTU21D;64049;46.290;44.240;2023-07-13T08:09:24;25.47;48.34
75466;HTU21D;64049;46.290;44.240;2023-07-13T08:11:50;25.60;46.06
75466;HTU21D;64049;46.290;44.240;2023-07-13T08:14:18;25.71;44.42
75466;HTU21D;64049;46.290;44.240;2023-07-13T08:16:47;25.84;44.08
75466;HTU21D;64049;46.290;44.240;2023-07-13T08:19:13;25.61;45.11
75466;HTU21D;64049;46.290;44.240;2023-07-13T08:21:40;25.56;45.63
75466;HTU21D;64049;46.290;44.240;2023-07-13T08:24:08;25.88;45.39
75466;HTU21D;64049;46.290;44.240;2023-07-13T08:26:34;26.12;42.46
75466;HTU21D;64049;46.290;44.240;2023-07-13T08:29:00;26.19;42.54
75466;HTU21D;64049;46.290;44.240;2023-07-13T08:31:26;25.92;41.97
75466;HTU21D;64049;46.290;44.240;2023-07-13T08:33:52;25.82;42.26
75466;HTU21D;64049;46.290;44.240;2023-07-13T08:36:18;25.60;42.42
75466;HTU21D;64049;46.290;44.240;2023-07-13T08:38:44;25.58;42.90
75466;HTU21D;64049;46.290;44.240;2023-07-13T08:41:17;25.65;42.83
75466;HTU21D;64049;46.290;44.240;2023-07-13T08:43:47;25.78;39.82
75466;HTU21D;64049;46.290;44.240;2023-07-13T08:49:09;25.97;38.87
75466;HTU21D;64049;46.290;44.240;2023-07-13T08:52:56;26.16;38.89
75466;HTU21D;64049;46.290;44.240;2023-07-13T08:54:53;26.20;39.90
75466;HTU21D;64049;46.290;44.240;2023-07-13T08:57:25;26.31;38.85
75466;HTU21D;64049;46.290;44.240;2023-07-13T08:59:56;26.38;37.60
75466;HTU21D;64049;46.290;44.240;2023-07-13T09:10:48;26.08;38.95
75466;HTU21D;64049;46.290;44.240;2023-07-13T09:15:45;26.50;39.36
75466;HTU21D;64049;46.290;44.240;2023-07-13T09:18:20;26.73;38.85
75466;HTU21D;64049;46.290;44.240;2023-07-13T09:20:57;26.67;38.39
75466;HTU21D;64049;46.290;44.240;2023-07-13T09:23:27;26.51;37.90
75466;HTU21D;64049;46.290;44.240;2023-07-13T09:26:02;26.31;37.37
75466;HTU21D;64049;46.290;44.240;2023-07-13T09:28:38;26.13;37.26
75466;HTU21D;64049;46.290;44.240;2023-07-13T09:31:10;26.27;38.04
75466;HTU21D;64049;46.290;44.240;2023-07-13T09:33:38;26.52;38.00
75466;HTU21D;64049;46.290;44.240;2023-07-13T09:36:23;26.75;37.23
75466;HTU21D;64049;46.290;44.240;2023-07-13T09:39:14;27.05;36.88
75466;HTU21D;64049;46.290;44.240;2023-07-13T09:42:12;27.50;35.62
75466;HTU21D;64049;46.290;44.240;2023-07-13T09:44:54;27.04;35.28
75466;HTU21D;64049;46.290;44.240;2023-07-13T09:47:31;26.66;35.78
75466;HTU21D;64049;46.290;44.240;2023-07-13T09:50:04;26.90;35.92
75466;HTU21D;64049;46.290;44.240;2023-07-13T09:52:50;26.77;35.56
75466;HTU21D;64049;46.290;44.240;2023-07-13T09:57:49;26.07;36.79
75466;HTU21D;64049;46.290;44.240;2023-07-13T10:00:27;25.74;37.65
75466;HTU21D;64049;46.290;44.240;2023-07-13T10:03:03;25.58;38.45
75466;HTU21D;64049;46.290;44.240;2023-07-13T10:05:38;25.66;38.00
75466;HTU21D;64049;46.290;44.240;2023-07-13T10:08:04;25.78;38.17
75466;HTU21D;64049;46.290;44.240;2023-07-13T10:10:33;26.13;37.14
75466;HTU21D;64049;46.290;44.240;2023-07-13T10:13:01;26.64;36.31
75466;HTU21D;64049;46.290;44.240;2023-07-13T10:15:30;26.57;36.49
75466;HTU21D;64049;46.290;44.240;2023-07-13T10:17:56;26.54;35.08
75466;HTU21D;64049;46.290;44.240;2023-07-13T10:20:24;26.45;35.12
75466;HTU21D;64049;46.290;44.240;2023-07-13T10:23:02;26.69;35.66
75466;HTU21D;64049;46.290;44.240;2023-07-13T10:25:35;26.97;35.31
75466;HTU21D;64049;46.290;44.240;2023-07-13T10:28:30;26.72;34.71
75466;HTU21D;64049;46.290;44.240;2023-07-13T10:30:59;26.38;36.05
75466;HTU21D;64049;46.290;44.240;2023-07-13T10:33:26;26.80;35.15
75466;HTU21D;64049;46.290;44.240;2023-07-13T10:36:13;26.80;35.21
75466;HTU21D;64049;46.290;44.240;2023-07-13T10:38:40;26.82;34.47
75466;HTU21D;64049;46.290;44.240;2023-07-13T10:41:13;27.04;33.83
75466;HTU21D;64049;46.290;44.240;2023-07-13T10:43:45;27.16;33.64
75466;HTU21D;64049;46.290;44.240;2023-07-13T10:46:15;27.36;34.24
75466;HTU21D;64049;46.290;44.240;2023-07-13T10:48:43;27.42;33.15
75466;HTU21D;64049;46.290;44.240;2023-07-13T10:51:13;27.43;33.02
75466;HTU21D;64049;46.290;44.240;2023-07-13T10:53:40;27.40;32.25
75466;HTU21D;64049;46.290;44.240;2023-07-13T10:58:45;27.40;31.80
75466;HTU21D;64049;46.290;44.240;2023-07-13T11:01:17;27.35;31.86
75466;HTU21D;64049;46.290;44.240;2023-07-13T11:06:15;27.37;31.23
75466;HTU21D;64049;46.290;44.240;2023-07-13T11:13:56;27.36;30.27
75466;HTU21D;64049;46.290;44.240;2023-07-13T11:19:23;27.56;29.32
75466;HTU21D;64049;46.290;44.240;2023-07-13T11:22:12;27.78;29.54
75466;HTU21D;64049;46.290;44.240;2023-07-13T11:24:50;27.63;28.83
75466;HTU21D;64049;46.290;44.240;2023-07-13T11:27:30;27.57;29.97
75466;HTU21D;64049;46.290;44.240;2023-07-13T11:33:13;27.61;30.03
75466;HTU21D;64049;46.290;44.240;2023-07-13T11:35:51;27.69;30.64
75466;HTU21D;64049;46.290;44.240;2023-07-13T11:38:30;27.23;30.48
75466;HTU21D;64049;46.290;44.240;2023-07-13T11:41:00;27.28;30.94
75466;HTU21D;64049;46.290;44.240;2023-07-13T11:43:29;27.50;28.76
75466;HTU21D;64049;46.290;44.240;2023-07-13T11:45:55;27.52;29.22
75466;HTU21D;64049;46.290;44.240;2023-07-13T11:48:28;27.56;29.57
75466;HTU21D;64049;46.290;44.240;2023-07-13T11:51:04;27.83;29.22
75466;HTU21D;64049;46.290;44.240;2023-07-13T11:53:40;28.01;28.28
75466;HTU21D;64049;46.290;44.240;2023-07-13T11:56:07;28.19;28.35
75466;HTU21D;64049;46.290;44.240;2023-07-13T11:58:33;28.46;28.27
75466;HTU21D;64049;46.290;44.240;2023-07-13T12:01:02;28.32;28.43
75466;HTU21D;64049;46.290;44.240;2023-07-13T12:03:32;28.06;28.55
75466;HTU21D;64049;46.290;44.240;2023-07-13T12:06:02;28.59;27.98
75466;HTU21D;64049;46.290;44.240;2023-07-13T12:08:40;28.86;27.58
75466;HTU21D;64049;46.290;44.240;2023-07-13T12:11:15;29.27;27.53
75466;HTU21D;64049;46.290;44.240;2023-07-13T12:13:43;29.96;26.20
75466;HTU21D;64049;46.290;44.240;2023-07-13T12:16:36;30.39;25.11
75466;HTU21D;64049;46.290;44.240;2023-07-13T12:19:03;30.38;24.68
75466;HTU21D;64049;46.290;44.240;2023-07-13T12:21:37;29.46;26.62
75466;HTU21D;64049;46.290;44.240;2023-07-13T12:24:04;30.59;24.73
75466;HTU21D;64049;46.290;44.240;2023-07-13T12:26:31;30.64;23.34
75466;HTU21D;64049;46.290;44.240;2023-07-13T12:29:01;29.44;25.14
75466;HTU21D;64049;46.290;44.240;2023-07-13T12:31:47;29.85;24.43
75466;HTU21D;64049;46.290;44.240;2023-07-13T12:34:16;30.57;22.87
75466;HTU21D;64049;46.290;44.240;2023-07-13T12:39:19;30.79;21.76
75466;HTU21D;64049;46.290;44.240;2023-07-13T12:41:48;29.49;23.62
75466;HTU21D;64049;46.290;44.240;2023-07-13T12:44:17;28.88;24.71
75466;HTU21D;64049;46.290;44.240;2023-07-13T12:47:04;29.18;24.86
75466;HTU21D;64049;46.290;44.240;2023-07-13T12:49:33;30.40;22.46
75466;HTU21D;64049;46.290;44.240;2023-07-13T12:52:04;30.48;22.31
75466;HTU21D;64049;46.290;44.240;2023-07-13T12:54:30;30.86;21.67
75466;HTU21D;64049;46.290;44.240;2023-07-13T12:56:58;31.06;19.81
75466;HTU21D;64049;46.290;44.240;2023-07-13T12:59:30;30.97;19.91
75466;HTU21D;64049;46.290;44.240;2023-07-13T13:01:58;30.92;19.65
75466;HTU21D;64049;46.290;44.240;2023-07-13T13:04:24;31.14;20.05
75466;HTU21D;64049;46.290;44.240;2023-07-13T13:07:01;31.24;20.64
75466;HTU21D;64049;46.290;44.240;2023-07-13T13:09:28;31.14;19.29
75466;HTU21D;64049;46.290;44.240;2023-07-13T13:11:54;31.52;19.66
75466;HTU21D;64049;46.290;44.240;2023-07-13T13:14:20;31.68;19.61
75466;HTU21D;64049;46.290;44.240;2023-07-13T13:16:48;31.28;19.38
75466;HTU21D;64049;46.290;44.240;2023-07-13T13:21:44;31.20;20.21
75466;HTU21D;64049;46.290;44.240;2023-07-13T13:24:14;31.73;19.18
75466;HTU21D;64049;46.290;44.240;2023-07-13T13:26:40;32.02;19.57
75466;HTU21D;64049;46.290;44.240;2023-07-13T13:29:17;32.61;18.33
75466;HTU21D;64049;46.290;44.240;2023-07-13T13:31:45;31.81;18.38
75466;HTU21D;64049;46.290;44.240;2023-07-13T13:34:12;31.53;19.09
75466;HTU21D;64049;46.290;44.240;2023-07-13T13:36:39;31.22;19.18
75466;HTU21D;64049;46.290;44.240;2023-07-13T13:39:18;30.79;19.95
75466;HTU21D;64049;46.290;44.240;2023-07-13T13:41:45;31.06;19.80
75466;HTU21D;64049;46.290;44.240;2023-07-13T13:44:12;30.97;20.04
75466;HTU21D;64049;46.290;44.240;2023-07-13T13:46:39;31.29;19.55
75466;HTU21D;64049;46.290;44.240;2023-07-13T13:49:12;31.27;19.56
75466;HTU21D;64049;46.290;44.240;2023-07-13T13:51:39;30.90;19.54
75466;HTU21D;64049;46.290;44.240;2023-07-13T13:54:10;30.57;19.29
75466;HTU21D;64049;46.290;44.240;2023-07-13T13:56:37;30.47;19.80
75466;HTU21D;64049;46.290;44.240;2023-07-13T14:02:51;29.88;20.66
75466;HTU21D;64049;46.290;44.240;2023-07-13T14:05:23;29.57;20.79
75466;HTU21D;64049;46.290;44.240;2023-07-13T14:07:49;29.50;20.93
75466;HTU21D;64049;46.290;44.240;2023-07-13T14:10:17;29.06;21.34
75466;HTU21D;64049;46.290;44.240;2023-07-13T14:12:47;29.04;21.73
75466;HTU21D;64049;46.290;44.240;2023-07-13T14:15:30;28.73;21.69
75466;HTU21D;64049;46.290;44.240;2023-07-13T14:17:56;28.68;22.27
75466;HTU21D;64049;46.290;44.240;2023-07-13T14:20:24;28.71;22.54
75466;HTU21D;64049;46.290;44.240;2023-07-13T14:22:53;28.45;22.40
75466;HTU21D;64049;46.290;44.240;2023-07-13T14:25:21;28.34;22.61
75466;HTU21D;64049;46.290;44.240;2023-07-13T14:27:59;28.39;22.72
75466;HTU21D;64049;46.290;44.240;2023-07-13T14:30:30;28.43;22.31
75466;HTU21D;64049;46.290;44.240;2023-07-13T14:32:59;28.15;22.79
75466;HTU21D;64049;46.290;44.240;2023-07-13T14:35:25;28.05;21.97
75466;HTU21D;64049;46.290;44.240;2023-07-13T14:37:51;27.86;21.39
75466;HTU21D;64049;46.290;44.240;2023-07-13T14:40:25;27.60;21.79
75466;HTU21D;64049;46.290;44.240;2023-07-13T14:42:58;27.56;22.22
75466;HTU21D;64049;46.290;44.240;2023-07-13T14:45:25;27.64;22.68
75466;HTU21D;64049;46.290;44.240;2023-07-13T14:47:56;27.63;22.50
75466;HTU21D;64049;46.290;44.240;2023-07-13T14:50:32;27.61;22.43
75466;HTU21D;64049;46.290;44.240;2023-07-13T14:53:01;27.46;22.53
75466;HTU21D;64049;46.290;44.240;2023-07-13T14:55:34;27.38;22.82
75466;HTU21D;64049;46.290;44.240;2023-07-13T14:58:03;27.30;22.95
75466;HTU21D;64049;46.290;44.240;2023-07-13T15:00:29;27.22;23.27
75466;HTU21D;64049;46.290;44.240;2023-07-13T15:02:58;27.17;23.66
75466;HTU21D;64049;46.290;44.240;2023-07-13T15:05:30;27.19;22.72
75466;HTU21D;64049;46.290;44.240;2023-07-13T15:08:01;27.17;22.53
75466;HTU21D;64049;46.290;44.240;2023-07-13T15:10:30;27.11;23.19
75466;HTU21D;64049;46.290;44.240;2023-07-13T15:13:19;27.13;22.72
75466;HTU21D;64049;46.290;44.240;2023-07-13T15:15:50;27.10;22.76
75466;HTU21D;64049;46.290;44.240;2023-07-13T15:18:20;26.96;22.16
75466;HTU21D;64049;46.290;44.240;2023-07-13T15:20:48;26.87;22.36
75466;HTU21D;64049;46.290;44.240;2023-07-13T15:23:16;26.81;22.43
75466;HTU21D;64049;46.290;44.240;2023-07-13T15:25:45;26.81;22.66
75466;HTU21D;64049;46.290;44.240;2023-07-13T15:28:12;26.75;22.55
75466;HTU21D;64049;46.290;44.240;2023-07-13T15:30:46;26.72;22.09
75466;HTU21D;64049;46.290;44.240;2023-07-13T15:33:31;26.82;22.15
75466;HTU21D;64049;46.290;44.240;2023-07-13T15:35:59;26.86;21.86
75466;HTU21D;64049;46.290;44.240;2023-07-13T15:38:31;26.91;21.74
75466;HTU21D;64049;46.290;44.240;2023-07-13T15:40:57;26.90;21.91
75466;HTU21D;64049;46.290;44.240;2023-07-13T15:43:25;26.90;22.05
75466;HTU21D;64049;46.290;44.240;2023-07-13T15:45:52;26.80;22.53
75466;HTU21D;64049;46.290;44.240;2023-07-13T15:48:23;26.67;22.47
75466;HTU21D;64049;46.290;44.240;2023-07-13T15:50:55;26.56;22.97
75466;HTU21D;64049;46.290;44.240;2023-07-13T15:53:29;26.48;23.15
75466;HTU21D;64049;46.290;44.240;2023-07-13T15:55:57;26.32;22.92
75466;HTU21D;64049;46.290;44.240;2023-07-13T15:58:24;26.15;23.20
75466;HTU21D;64049;46.290;44.240;2023-07-13T16:00:51;26.13;23.51